sensor_id;sensor_type;location;lat;lon;timestamp;pressure;altitude;pressure_sealevel;temperature;humidity
48774;BME280;34576;0.000;0.000;2022-10-16T00:01:40;96516.38;;;18.10;69.50
48774;BME280;34576;0.000;0.000;2022-10-16T00:08:41;96520.09;;;18.09;70.08
48774;BME280;34576;0.000;0.000;2022-10-16T00:15:41;96506.50;;;18.10;69.39
48774;BME280;34576;0.000;0.000;2022-10-16T00:22:43;96513.72;;;18.10;69.70
48774;BME280;34576;0.000;0.000;2022-10-16T00:29:44;96512.63;;;18.11;69.52
48774;BME280;34576;0.000;0.000;2022-10-16T00:36:44;96529.69;;;18.10;69.63
48774;BME280;34576;0.000;0.000;2022-10-16T00:43:48;96519.25;;;18.14;69.51
48774;BME280;34576;0.000;0.000;2022-10-16T00:50:49;96524.09;;;18.11;69.79
48774;BME280;34576;0.000;0.000;2022-10-16T00:57:50;96532.84;;;18.12;69.75
48774;BME280;34576;0.000;0.000;2022-10-16T01:04:51;96534.72;;;18.11;69.52
48774;BME280;34576;0.000;0.000;2022-10-16T01:19:08;96558.41;;;18.13;70.12
48774;BME280;34576;0.000;0.000;2022-10-16T01:33:20;96549.59;;;18.13;70.24
48774;BME280;34576;0.000;0.000;2022-10-16T01:40:24;96555.75;;;18.13;69.84
48774;BME280;34576;0.000;0.000;2022-10-16T01:47:26;96562.91;;;18.13;69.85
48774;BME280;34576;0.000;0.000;2022-10-16T01:54:27;96541.13;;;18.10;70.40
48774;BME280;34576;0.000;0.000;2022-10-16T02:01:30;96537.09;;;18.13;69.65
48774;BME280;34576;0.000;0.000;2022-10-16T02:08:31;96530.19;;;18.12;69.77
48774;BME280;34576;0.000;0.000;2022-10-16T02:15:32;96541.63;;;18.13;70.21
48774;BME280;34576;0.000;0.000;2022-10-16T02:22:33;96546.16;;;18.12;70.33
48774;BME280;34576;0.000;0.000;2022-10-16T02:29:45;96544.00;;;18.14;69.80
48774;BME280;34576;0.000;0.000;2022-10-16T02:36:48;96549.31;;;18.14;69.84
48774;BME280;34576;0.000;0.000;2022-10-16T02:43:50;96549.88;;;18.11;69.77
48774;BME280;34576;0.000;0.000;2022-10-16T02:50:50;96566.53;;;18.27;70.06
48774;BME280;34576;0.000;0.000;2022-10-16T02:57:51;96557.81;;;18.21;70.05
48774;BME280;34576;0.000;0.000;2022-10-16T03:04:52;96558.91;;;18.15;70.37
48774;BME280;34576;0.000;0.000;2022-10-16T03:11:52;96566.09;;;18.15;70.30
48774;BME280;34576;0.000;0.000;2022-10-16T03:18:53;96558.91;;;18.15;69.96
48774;BME280;34576;0.000;0.000;2022-10-16T03:25:53;96554.66;;;18.14;70.10
48774;BME280;34576;0.000;0.000;2022-10-16T03:32:54;96557.84;;;18.16;69.80
48774;BME280;34576;0.000;0.000;2022-10-16T03:39:54;96552.53;;;18.16;69.74
48774;BME280;34576;0.000;0.000;2022-10-16T03:46:54;96557.84;;;18.16;69.71
48774;BME280;34576;0.000;0.000;2022-10-16T03:53:55;96558.41;;;18.13;70.04
48774;BME280;34576;0.000;0.000;2022-10-16T04:00:55;96565.28;;;18.14;70.13
48774;BME280;34576;0.000;0.000;2022-10-16T04:07:55;96561.00;;;18.18;69.58
48774;BME280;34576;0.000;0.000;2022-10-16T04:14:56;96554.41;;;18.16;70.02
48774;BME280;34576;0.000;0.000;2022-10-16T04:21:56;96574.88;;;18.15;70.24
48774;BME280;34576;0.000;0.000;2022-10-16T04:28:56;96569.84;;;18.14;70.02
48774;BME280;34576;0.000;0.000;2022-10-16T04:35:57;96580.19;;;18.15;69.89
48774;BME280;34576;0.000;0.000;2022-10-16T04:42:58;96580.50;;;18.14;70.38
48774;BME280;34576;0.000;0.000;2022-10-16T04:49:58;96579.41;;;18.15;70.02
48774;BME280;34576;0.000;0.000;2022-10-16T04:57:01;96574.84;;;18.20;70.22
48774;BME280;34576;0.000;0.000;2022-10-16T05:04:01;96577.63;;;18.39;72.56
48774;BME280;34576;0.000;0.000;2022-10-16T05:11:02;96574.72;;;18.36;72.71
48774;BME280;34576;0.000;0.000;2022-10-16T05:18:02;96575.78;;;18.35;72.98
48774;BME280;34576;0.000;0.000;2022-10-16T05:25:02;96594.72;;;18.33;73.07
48774;BME280;34576;0.000;0.000;2022-10-16T05:32:03;96606.69;;;18.36;73.15
48774;BME280;34576;0.000;0.000;2022-10-16T05:39:03;96614.13;;;18.34;73.57
48774;BME280;34576;0.000;0.000;2022-10-16T05:46:04;96618.41;;;18.35;73.78
48774;BME280;34576;0.000;0.000;2022-10-16T05:53:04;96609.09;;;18.32;73.67
48774;BME280;34576;0.000;0.000;2022-10-16T06:00:05;96612.53;;;18.33;73.78
48774;BME280;34576;0.000;0.000;2022-10-16T06:07:12;96618.69;;;18.33;73.89
48774;BME280;34576;0.000;0.000;2022-10-16T06:14:13;96630.41;;;18.32;73.71
48774;BME280;34576;0.000;0.000;2022-10-16T06:21:17;96626.94;;;18.32;73.55
48774;BME280;34576;0.000;0.000;2022-10-16T06:28:18;96635.44;;;18.34;73.78
48774;BME280;34576;0.000;0.000;2022-10-16T06:35:18;96660.47;;;18.33;73.82
48774;BME280;34576;0.000;0.000;2022-10-16T06:42:19;96675.78;;;17.62;71.87
48774;BME280;34576;0.000;0.000;2022-10-16T06:49:19;96683.03;;;17.35;71.69
48774;BME280;34576;0.000;0.000;2022-10-16T06:56:23;96680.69;;;17.18;70.92
48774;BME280;34576;0.000;0.000;2022-10-16T07:03:24;96695.00;;;17.33;70.46
48774;BME280;34576;0.000;0.000;2022-10-16T07:10:24;96707.75;;;17.41;70.05
48774;BME280;34576;0.000;0.000;2022-10-16T07:17:24;96720.78;;;17.37;69.74
48774;BME280;34576;0.000;0.000;2022-10-16T07:24:25;96730.63;;;17.21;70.45
48774;BME280;34576;0.000;0.000;2022-10-16T07:31:25;96740.19;;;17.33;69.89
48774;BME280;34576;0.000;0.000;2022-10-16T07:38:26;96747.66;;;17.25;70.47
48774;BME280;34576;0.000;0.000;2022-10-16T07:45:26;96752.19;;;17.30;69.47
48774;BME280;34576;0.000;0.000;2022-10-16T07:52:26;96760.69;;;17.37;70.28
48774;BME280;34576;0.000;0.000;2022-10-16T07:59:27;96776.34;;;17.34;70.84
48774;BME280;34576;0.000;0.000;2022-10-16T08:06:27;96793.91;;;17.45;70.99
48774;BME280;34576;0.000;0.000;2022-10-16T08:13:27;96787.50;;;17.41;70.75
48774;BME280;34576;0.000;0.000;2022-10-16T08:20:27;96787.50;;;17.41;70.55
48774;BME280;34576;0.000;0.000;2022-10-16T08:27:31;96794.91;;;17.75;69.88
48774;BME280;34576;0.000;0.000;2022-10-16T08:34:32;96798.66;;;17.58;70.08
48774;BME280;34576;0.000;0.000;2022-10-16T08:48:53;96794.84;;;17.96;69.45
48774;BME280;34576;0.000;0.000;2022-10-16T08:55:54;96797.78;;;18.04;69.21
48774;BME280;34576;0.000;0.000;2022-10-16T09:10:08;96799.84;;;18.13;68.95
48774;BME280;34576;0.000;0.000;2022-10-16T09:17:19;96804.66;;;18.16;68.68
48774;BME280;34576;0.000;0.000;2022-10-16T09:24:25;96811.81;;;18.15;68.73
48774;BME280;34576;0.000;0.000;2022-10-16T09:31:26;96818.75;;;18.16;68.74
48774;BME280;34576;0.000;0.000;2022-10-16T09:38:27;96826.19;;;18.19;68.75
48774;BME280;34576;0.000;0.000;2022-10-16T09:45:28;96818.19;;;18.19;68.69
48774;BME280;34576;0.000;0.000;2022-10-16T09:52:29;96814.47;;;18.20;68.64
48774;BME280;34576;0.000;0.000;2022-10-16T09:59:31;96819.53;;;18.22;68.83
48774;BME280;34576;0.000;0.000;2022-10-16T10:06:33;96826.16;;;18.24;68.68
48774;BME280;34576;0.000;0.000;2022-10-16T10:13:34;96829.06;;;18.28;68.91
48774;BME280;34576;0.000;0.000;2022-10-16T10:20:35;96821.84;;;18.34;68.93
48774;BME280;34576;0.000;0.000;2022-10-16T10:27:44;96820.25;;;18.38;68.97
48774;BME280;34576;0.000;0.000;2022-10-16T10:35:01;96822.41;;;18.36;68.99
48774;BME280;34576;0.000;0.000;2022-10-16T11:25:13;96801.59;;;18.43;69.33
48774;BME280;34576;0.000;0.000;2022-10-16T11:32:19;96803.16;;;18.44;69.21
48774;BME280;34576;0.000;0.000;2022-10-16T11:39:21;96787.72;;;18.46;69.44
48774;BME280;34576;0.000;0.000;2022-10-16T11:46:24;96775.72;;;18.43;69.43
48774;BME280;34576;0.000;0.000;2022-10-16T12:00:28;96791.69;;;18.49;69.25
48774;BME280;34576;0.000;0.000;2022-10-16T12:07:35;96794.09;;;18.50;69.51
48774;BME280;34576;0.000;0.000;2022-10-16T12:14:39;96798.31;;;18.51;69.64
48774;BME280;34576;0.000;0.000;2022-10-16T12:21:40;96787.41;;;18.53;69.59
48774;BME280;34576;0.000;0.000;2022-10-16T12:28:41;96776.34;;;18.75;64.06
48774;BME280;34576;0.000;0.000;2022-10-16T12:35:44;96769.28;;;18.94;59.52
48774;BME280;34576;0.000;0.000;2022-10-16T12:42:45;96768.22;;;18.95;57.03
48774;BME280;34576;0.000;0.000;2022-10-16T12:49:50;96765.09;;;18.83;58.84
48774;BME280;34576;0.000;0.000;2022-10-16T13:04:15;96754.31;;;18.64;60.20
48774;BME280;34576;0.000;0.000;2022-10-16T13:18:23;96755.94;;;18.55;62.20
48774;BME280;34576;0.000;0.000;2022-10-16T13:32:38;96762.59;;;18.57;62.69
48774;BME280;34576;0.000;0.000;2022-10-16T13:39:39;96757.56;;;18.56;63.49
48774;BME280;34576;0.000;0.000;2022-10-16T13:46:39;96758.34;;;18.56;63.82
48774;BME280;34576;0.000;0.000;2022-10-16T13:53:39;96756.75;;;18.55;64.04
48774;BME280;34576;0.000;0.000;2022-10-16T14:00:42;96763.66;;;18.56;64.34
48774;BME280;34576;0.000;0.000;2022-10-16T14:07:53;96764.44;;;18.57;64.55
48774;BME280;34576;0.000;0.000;2022-10-16T14:14:54;96754.59;;;18.57;64.55
48774;BME280;34576;0.000;0.000;2022-10-16T14:21:55;96764.44;;;18.57;64.72
48774;BME280;34576;0.000;0.000;2022-10-16T14:29:13;96765.22;;;18.62;64.13
48774;BME280;34576;0.000;0.000;2022-10-16T14:36:14;96761.75;;;18.62;64.47
48774;BME280;34576;0.000;0.000;2022-10-16T14:43:17;96770.53;;;18.62;64.97
48774;BME280;34576;0.000;0.000;2022-10-16T14:50:20;96765.22;;;18.62;65.24
48774;BME280;34576;0.000;0.000;2022-10-16T14:57:22;96764.16;;;18.63;65.52
48774;BME280;34576;0.000;0.000;2022-10-16T15:04:23;96762.03;;;18.66;65.66
48774;BME280;34576;0.000;0.000;2022-10-16T15:11:23;96778.00;;;18.66;66.12
48774;BME280;34576;0.000;0.000;2022-10-16T15:18:23;96772.69;;;18.66;66.30
48774;BME280;34576;0.000;0.000;2022-10-16T15:25:32;96780.38;;;18.67;66.39
48774;BME280;34576;0.000;0.000;2022-10-16T15:32:33;96782.25;;;18.67;66.59
48774;BME280;34576;0.000;0.000;2022-10-16T15:39:33;96787.56;;;18.67;66.71
48774;BME280;34576;0.000;0.000;2022-10-16T15:46:33;96788.66;;;18.66;66.79
48774;BME280;34576;0.000;0.000;2022-10-16T15:53:34;96805.44;;;18.66;66.95
48774;BME280;34576;0.000;0.000;2022-10-16T16:00:35;96806.22;;;18.67;67.12
48774;BME280;34576;0.000;0.000;2022-10-16T16:07:36;96816.88;;;18.67;67.12
48774;BME280;34576;0.000;0.000;2022-10-16T16:14:36;96827.53;;;18.67;67.05
48774;BME280;34576;0.000;0.000;2022-10-16T16:21:36;96816.09;;;18.66;67.29
48774;BME280;34576;0.000;0.000;2022-10-16T16:28:37;96817.44;;;18.63;67.36
48774;BME280;34576;0.000;0.000;2022-10-16T16:35:38;96819.81;;;18.65;67.50
48774;BME280;34576;0.000;0.000;2022-10-16T16:42:38;96829.69;;;18.65;67.67
48774;BME280;34576;0.000;0.000;2022-10-16T16:49:38;96845.69;;;18.65;67.75
48774;BME280;34576;0.000;0.000;2022-10-16T16:56:40;96859.00;;;18.65;67.75
48774;BME280;34576;0.000;0.000;2022-10-16T17:03:44;96867.00;;;18.65;67.82
48774;BME280;34576;0.000;0.000;2022-10-16T17:10:45;96872.31;;;18.65;67.71
48774;BME280;34576;0.000;0.000;2022-10-16T17:17:46;96882.97;;;18.65;67.85
48774;BME280;34576;0.000;0.000;2022-10-16T17:24:50;96890.41;;;18.68;67.81
48774;BME280;34576;0.000;0.000;2022-10-16T17:31:51;96894.16;;;18.67;67.92
48774;BME280;34576;0.000;0.000;2022-10-16T17:38:51;96904.00;;;18.71;68.02
48774;BME280;34576;0.000;0.000;2022-10-16T17:45:51;96908.78;;;18.69;68.34
48774;BME280;34576;0.000;0.000;2022-10-16T17:52:52;96921.34;;;18.69;68.30
48774;BME280;34576;0.000;0.000;2022-10-16T17:59:55;96934.63;;;18.74;68.50
48774;BME280;34576;0.000;0.000;2022-10-16T18:06:55;96943.16;;;18.71;68.58
48774;BME280;34576;0.000;0.000;2022-10-16T18:13:56;96953.53;;;18.72;68.78
48774;BME280;34576;0.000;0.000;2022-10-16T18:20:58;96955.16;;;18.73;68.44
48774;BME280;34576;0.000;0.000;2022-10-16T18:27:58;96958.09;;;18.72;68.40
48774;BME280;34576;0.000;0.000;2022-10-16T18:34:59;96958.88;;;18.72;68.68
48774;BME280;34576;0.000;0.000;2022-10-16T18:41:59;96959.69;;;18.73;68.53
48774;BME280;34576;0.000;0.000;2022-10-16T18:48:59;96973.00;;;18.73;68.61
48774;BME280;34576;0.000;0.000;2022-10-16T18:56:00;96976.47;;;18.73;68.52
48774;BME280;34576;0.000;0.000;2022-10-16T19:03:01;96986.34;;;18.73;68.48
48774;BME280;34576;0.000;0.000;2022-10-16T19:10:01;96992.47;;;18.73;68.41
48774;BME280;34576;0.000;0.000;2022-10-16T19:17:01;96987.91;;;18.74;68.44
48774;BME280;34576;0.000;0.000;2022-10-16T19:24:02;96997.50;;;18.75;68.41
48774;BME280;34576;0.000;0.000;2022-10-16T19:31:03;97009.22;;;18.74;68.40
48774;BME280;34576;0.000;0.000;2022-10-16T19:38:04;97022.56;;;18.74;68.48
48774;BME280;34576;0.000;0.000;2022-10-16T19:45:04;97026.81;;;18.75;68.36
48774;BME280;34576;0.000;0.000;2022-10-16T19:52:05;97044.94;;;18.78;68.28
48774;BME280;34576;0.000;0.000;2022-10-16T19:59:06;97052.94;;;18.78;68.31
48774;BME280;34576;0.000;0.000;2022-10-16T20:06:07;97064.69;;;18.77;68.13
48774;BME280;34576;0.000;0.000;2022-10-16T20:13:07;97076.91;;;18.78;68.36
48774;BME280;34576;0.000;0.000;2022-10-16T20:20:07;97085.47;;;18.80;67.95
48774;BME280;34576;0.000;0.000;2022-10-16T20:27:08;97086.50;;;18.84;68.87
48774;BME280;34576;0.000;0.000;2022-10-16T20:34:09;97093.97;;;18.82;68.83
48774;BME280;34576;0.000;0.000;2022-10-16T20:41:10;97101.97;;;18.82;68.61
48774;BME280;34576;0.000;0.000;2022-10-16T20:48:12;97118.50;;;18.89;69.37
48774;BME280;34576;0.000;0.000;2022-10-16T20:55:12;97105.69;;;18.86;69.15
48774;BME280;34576;0.000;0.000;2022-10-16T21:02:12;97108.09;;;18.88;69.02
48774;BME280;34576;0.000;0.000;2022-10-16T21:09:12;97105.97;;;18.85;68.99
48774;BME280;34576;0.000;0.000;2022-10-16T21:16:13;97112.66;;;18.87;69.72
48774;BME280;34576;0.000;0.000;2022-10-16T21:23:14;97112.66;;;18.87;69.20
48774;BME280;34576;0.000;0.000;2022-10-16T21:30:14;97118.50;;;18.89;69.67
48774;BME280;34576;0.000;0.000;2022-10-16T21:37:14;97109.72;;;18.89;69.13
48774;BME280;34576;0.000;0.000;2022-10-16T21:44:15;97115.84;;;18.89;69.98
48774;BME280;34576;0.000;0.000;2022-10-16T21:51:15;97123.84;;;18.89;70.07
48774;BME280;34576;0.000;0.000;2022-10-16T21:58:16;97116.91;;;18.88;70.31
48774;BME280;34576;0.000;0.000;2022-10-16T22:05:16;97117.44;;;18.90;70.15
48774;BME280;34576;0.000;0.000;2022-10-16T22:12:16;97114.78;;;18.90;70.26
48774;BME280;34576;0.000;0.000;2022-10-16T22:19:19;97118.22;;;18.91;70.29
48774;BME280;34576;0.000;0.000;2022-10-16T22:26:20;97116.38;;;18.91;70.40
48774;BME280;34576;0.000;0.000;2022-10-16T22:33:20;97113.72;;;18.91;70.39
48774;BME280;34576;0.000;0.000;2022-10-16T22:40:21;97118.78;;;18.93;70.22
48774;BME280;34576;0.000;0.000;2022-10-16T22:47:21;97121.16;;;18.94;70.24
48774;BME280;34576;0.000;0.000;2022-10-16T22:54:21;97122.78;;;18.95;70.39
48774;BME280;34576;0.000;0.000;2022-10-16T23:01:26;97122.78;;;18.95;70.73
48774;BME280;34576;0.000;0.000;2022-10-16T23:08:26;97133.44;;;18.95;70.67
48774;BME280;34576;0.000;0.000;2022-10-16T23:15:27;97138.75;;;18.95;70.73
48774;BME280;34576;0.000;0.000;2022-10-16T23:22:27;97134.50;;;18.94;71.06
48774;BME280;34576;0.000;0.000;2022-10-16T23:29:27;97136.34;;;18.94;71.43
48774;BME280;34576;0.000;0.000;2022-10-16T23:36:28;97138.75;;;19.01;71.41
48774;BME280;34576;0.000;0.000;2022-10-16T23:43:28;97136.63;;;18.97;71.72
48774;BME280;34576;0.000;0.000;2022-10-16T23:50:28;97146.22;;;18.99;71.78
48774;BME280;34576;0.000;0.000;2022-10-16T23:57:29;97154.75;;;18.95;71.69
